עמוד ראשי
METAR-TAF:

METAR-TAF

שדות תעופה :

Rivas, ניקרגואה

קו רוחב: 11-25N, קו אורך: 085-50W, גובה: 53מטר

תצפית מזג אוויר נוכחית

הדו"ח נערך לפני 55דקות, בשעה 14:00 UTC
רוח 8קשר מכיוון צפון/צפון-מזרח
טמפרטורת 30 צלסיוס
לחות 70%
לחץ 1012 hPa
ראות 10 קילומטר או יותר
מעט עננים בגובה 1500רגל

METAR: MNRS 241400Z 02008KT 9999 FEW015 30/24 Q1012

זמן: 08:55 (14:55 UTC)


TAF: חסר

תצפיות ותחזיות מזג אוויר לגבי יותר מ- 4,000 שדות תעופה ברחבי העולם. דוחות METAR ו- TAF.

התחנות הזמינות מסומנות בנקודות צהובות ואדומות על גבי המפה.

העבר את העכבר לנקודה הצבעונית על מנת לראות את שם התחנה.

לאחר מכן, לחץ כדי לראות את תוכן ואת תחזיות מזג האוויר.

כדי לשנות את המפה: לחץ על הכפתורים הירוקים עם הפלוס השחור כדי להתקרב; על הכפתור הירוק עם המקף כדי להתרחק; או בחיצים הירוקים למפות סמוכות.


METAR-TAF: